createdAt,value
2017-12-24T00:01:02.594Z,65.53
2017-12-24T00:03:03.692Z,65.27
2017-12-24T00:05:04.732Z,55.80
2017-12-24T00:07:05.771Z,63.30
2017-12-24T00:09:06.785Z,58.87
2017-12-24T00:11:07.779Z,59.23
2017-12-24T00:13:08.840Z,57.97
2017-12-24T00:15:09.815Z,60.37
2017-12-24T00:17:10.883Z,54.37
2017-12-24T00:19:11.901Z,52.47
2017-12-24T00:21:13.133Z,57.80
2017-12-24T00:23:14.127Z,53.57
2017-12-24T00:25:15.860Z,53.20
2017-12-24T00:27:16.862Z,58.20
2017-12-24T00:29:17.858Z,53.67
2017-12-24T00:31:19.603Z,58.27
2017-12-24T00:33:20.591Z,51.33
2017-12-24T00:35:22.450Z,57.20
2017-12-24T00:37:23.475Z,48.20
2017-12-24T00:39:24.455Z,58.00
2017-12-24T00:41:26.170Z,59.80
2017-12-24T00:43:27.203Z,51.87
2017-12-24T00:45:28.196Z,58.40
2017-12-24T00:47:29.203Z,58.23
2017-12-24T00:49:30.210Z,57.03
2017-12-24T00:51:31.281Z,57.43
2017-12-24T00:53:32.267Z,51.93
2017-12-24T00:55:33.331Z,58.13
2017-12-24T00:57:34.587Z,56.40
2017-12-24T00:59:35.579Z,55.40
2017-12-24T01:01:36.666Z,56.73
2017-12-24T01:03:37.667Z,63.27
2017-12-24T01:05:38.659Z,58.43
2017-12-24T01:07:39.635Z,63.67
2017-12-24T01:09:41.370Z,52.27
2017-12-24T01:11:42.451Z,56.70
2017-12-24T01:13:44.237Z,56.80
2017-12-24T01:15:45.287Z,58.40
2017-12-24T01:17:46.282Z,62.77
2017-12-24T01:19:47.335Z,64.30
2017-12-24T01:21:48.360Z,68.17
2017-12-24T01:23:49.416Z,66.30
2017-12-24T01:25:50.408Z,59.90
2017-12-24T01:27:51.369Z,61.23
2017-12-24T01:29:52.392Z,64.70
2017-12-24T01:31:53.386Z,61.53
2017-12-24T01:33:54.464Z,61.73
2017-12-24T01:35:55.472Z,66.43
2017-12-24T01:37:56.455Z,63.37
2017-12-24T01:39:57.424Z,66.40
2017-12-24T01:41:59.159Z,59.67
2017-12-24T01:44:00.135Z,59.83
2017-12-24T01:46:01.121Z,62.00
2017-12-24T01:48:02.080Z,66.80
2017-12-24T01:50:03.121Z,63.40
2017-12-24T01:52:04.209Z,57.93
2017-12-24T01:54:05.990Z,57.40
2017-12-24T01:56:07.715Z,60.47
2017-12-24T01:58:08.735Z,66.50
2017-12-24T02:00:09.726Z,58.50
2017-12-24T02:02:10.751Z,60.23
2017-12-24T02:04:11.737Z,66.40
2017-12-24T02:06:13.519Z,51.10
2017-12-24T02:08:14.506Z,59.63
2017-12-24T02:10:15.477Z,52.00
2017-12-24T02:12:16.451Z,54.03
2017-12-24T02:14:18.171Z,54.20
2017-12-24T02:16:19.188Z,47.27
2017-12-24T02:18:20.238Z,52.40
2017-12-24T02:20:21.350Z,53.03
2017-12-24T02:22:22.345Z,55.87
2017-12-24T02:24:23.401Z,53.83
2017-12-24T02:26:24.406Z,55.50
2017-12-24T02:28:25.427Z,57.80
2017-12-24T02:30:26.444Z,52.10
2017-12-24T02:32:27.487Z,48.30
2017-12-24T02:34:28.512Z,53.63
2017-12-24T02:36:29.518Z,53.17
2017-12-24T02:38:30.656Z,54.70
2017-12-24T02:40:31.656Z,48.90
2017-12-24T02:42:32.631Z,49.77
2017-12-24T02:44:33.693Z,47.70
2017-12-24T02:46:34.686Z,48.90
2017-12-24T02:48:35.701Z,57.47
2017-12-24T02:50:36.723Z,52.03
2017-12-24T02:52:37.719Z,48.03
2017-12-24T02:54:38.710Z,46.03
2017-12-24T02:56:39.732Z,47.07
2017-12-24T02:58:40.743Z,46.70
2017-12-24T03:00:41.787Z,44.60
2017-12-24T03:02:42.763Z,51.63
2017-12-24T03:04:43.781Z,48.23
2017-12-24T03:06:44.771Z,53.87
2017-12-24T03:08:45.761Z,51.50
2017-12-24T03:10:46.748Z,48.83
2017-12-24T03:12:47.838Z,47.57
2017-12-24T03:14:48.839Z,49.80
2017-12-24T03:16:49.830Z,52.43
2017-12-24T03:18:50.991Z,57.90
2017-12-24T03:20:51.998Z,57.47
2017-12-24T03:22:53.015Z,60.10
2017-12-24T03:24:53.981Z,57.10
2017-12-24T03:26:55.077Z,59.77
2017-12-24T03:28:56.124Z,59.60
2017-12-24T03:30:57.089Z,58.70
2017-12-24T03:32:58.876Z,63.70
2017-12-24T03:34:59.924Z,58.67
2017-12-24T03:37:00.902Z,62.60
2017-12-24T03:39:02.058Z,63.63
2017-12-24T03:41:03.050Z,59.43
2017-12-24T03:43:04.182Z,72.33
2017-12-24T03:45:05.221Z,77.73
2017-12-24T03:47:06.280Z,71.10
2017-12-24T03:49:07.251Z,75.33
2017-12-24T03:51:08.268Z,72.27
2017-12-24T03:53:09.295Z,68.97
2017-12-24T03:55:10.393Z,70.77
2017-12-24T03:57:11.394Z,74.60
2017-12-24T03:59:12.723Z,72.33
2017-12-24T04:01:13.735Z,71.07
2017-12-24T04:03:15.469Z,75.77
2017-12-24T04:05:16.526Z,73.57
2017-12-24T04:07:17.510Z,73.50
2017-12-24T04:09:18.537Z,66.53
2017-12-24T04:11:19.677Z,73.30
2017-12-24T04:13:20.699Z,76.27
2017-12-24T04:15:21.712Z,76.47
2017-12-24T04:17:22.774Z,73.07
2017-12-24T04:19:23.788Z,76.83
2017-12-24T04:21:25.544Z,73.90
2017-12-24T04:23:26.560Z,73.03
2017-12-24T04:25:27.558Z,74.00
2017-12-24T04:27:28.535Z,76.97
2017-12-24T04:29:29.650Z,74.10
2017-12-24T04:31:30.611Z,76.87
2017-12-24T04:33:31.586Z,74.30
2017-12-24T04:35:32.577Z,81.20
2017-12-24T04:37:33.587Z,75.77
2017-12-24T04:39:34.621Z,72.90
2017-12-24T04:41:35.652Z,76.13
2017-12-24T04:43:36.677Z,68.20
2017-12-24T04:45:37.638Z,66.13
2017-12-24T04:47:38.621Z,74.07
2017-12-24T04:49:39.610Z,74.07
2017-12-24T04:51:40.643Z,66.70
2017-12-24T04:53:41.620Z,69.43
2017-12-24T04:55:42.678Z,61.57
2017-12-24T04:57:43.723Z,61.00
2017-12-24T04:59:44.775Z,64.40
2017-12-24T05:01:45.776Z,67.10
2017-12-24T05:03:47.511Z,64.93
2017-12-24T05:05:48.511Z,64.87
2017-12-24T05:07:49.544Z,58.53
2017-12-24T05:09:50.534Z,59.97
2017-12-24T05:11:51.543Z,62.53
2017-12-24T05:13:52.583Z,64.77
2017-12-24T05:15:54.340Z,55.80
2017-12-24T05:17:56.086Z,61.03
2017-12-24T05:19:57.184Z,58.17
2017-12-24T05:21:58.190Z,64.90
2017-12-24T05:23:59.938Z,57.17
2017-12-24T05:26:00.922Z,62.40
2017-12-24T05:28:01.903Z,64.17
2017-12-24T05:30:02.929Z,56.67
2017-12-24T05:32:03.926Z,62.50
2017-12-24T05:34:04.936Z,57.50
2017-12-24T05:36:06.077Z,70.90
2017-12-24T05:38:07.063Z,60.33
2017-12-24T05:40:08.179Z,67.53
2017-12-24T05:42:09.232Z,65.13
2017-12-24T05:44:10.287Z,59.93
2017-12-24T05:46:11.316Z,72.03
2017-12-24T05:48:12.294Z,59.73
2017-12-24T05:50:13.293Z,56.10
2017-12-24T05:52:14.403Z,67.80
2017-12-24T05:54:15.390Z,55.80
2017-12-24T05:56:17.119Z,59.80
2017-12-24T05:58:18.178Z,64.83
2017-12-24T06:00:19.143Z,63.20
2017-12-24T06:02:20.270Z,60.70
2017-12-24T06:04:21.242Z,60.47
2017-12-24T06:06:22.956Z,63.93
2017-12-24T06:08:24.158Z,62.93
2017-12-24T06:10:25.916Z,62.57
2017-12-24T06:12:26.899Z,58.20
2017-12-24T06:14:27.924Z,64.53
2017-12-24T06:16:29.006Z,67.33
2017-12-24T06:18:29.972Z,56.57
2017-12-24T06:20:31.031Z,61.67
2017-12-24T06:22:32.014Z,63.93
2017-12-24T06:24:33.071Z,55.50
2017-12-24T06:26:34.036Z,61.47
2017-12-24T06:28:35.077Z,59.33
2017-12-24T06:30:36.071Z,60.63
2017-12-24T06:32:37.210Z,62.90
2017-12-24T06:34:38.192Z,52.57
2017-12-24T06:36:39.892Z,56.07
2017-12-24T06:38:40.891Z,55.80
2017-12-24T06:40:41.994Z,59.70
2017-12-24T06:42:42.971Z,65.80
2017-12-24T06:44:43.978Z,52.90
2017-12-24T06:46:45.080Z,56.37
2017-12-24T06:48:46.831Z,58.70
2017-12-24T06:50:48.580Z,51.97
2017-12-24T06:52:49.626Z,50.37
2017-12-24T06:54:50.663Z,55.13
2017-12-24T06:56:51.722Z,59.20
2017-12-24T06:58:52.735Z,59.57
2017-12-24T07:00:53.778Z,57.83
2017-12-24T07:02:54.813Z,60.33
2017-12-24T07:04:55.852Z,61.47
2017-12-24T07:06:56.858Z,63.37
2017-12-24T07:08:57.872Z,63.70
2017-12-24T07:10:59.349Z,66.47
2017-12-24T07:13:00.370Z,69.90
2017-12-24T07:15:01.412Z,72.67
2017-12-24T07:17:02.426Z,68.17
2017-12-24T07:19:03.390Z,67.87
2017-12-24T07:21:04.399Z,73.03
2017-12-24T07:23:05.395Z,70.00
2017-12-24T07:25:06.386Z,67.97
2017-12-24T07:27:07.384Z,63.57
2017-12-24T07:29:08.364Z,68.17
2017-12-24T07:31:09.372Z,61.30
2017-12-24T07:33:10.348Z,53.60
2017-12-24T07:35:11.343Z,63.47
2017-12-24T07:37:12.379Z,57.57
2017-12-24T07:39:13.390Z,53.83
2017-12-24T07:41:14.405Z,58.10
2017-12-24T07:43:15.367Z,58.40
2017-12-24T07:45:16.350Z,51.40
2017-12-24T07:47:17.411Z,52.23
2017-12-24T07:49:18.359Z,53.07
2017-12-24T07:51:19.406Z,53.57
2017-12-24T07:53:20.398Z,49.90
2017-12-24T07:55:21.369Z,52.87
2017-12-24T07:57:22.379Z,48.17
2017-12-24T07:59:23.346Z,48.90
2017-12-24T08:01:24.308Z,50.27
2017-12-24T08:03:25.456Z,49.50
2017-12-24T08:05:26.460Z,54.40
2017-12-24T08:07:27.424Z,46.80
2017-12-24T08:09:28.427Z,52.43
2017-12-24T08:11:29.403Z,51.37
2017-12-24T08:13:31.116Z,51.03
2017-12-24T08:15:32.146Z,47.67
2017-12-24T08:17:33.098Z,45.20
2017-12-24T08:19:34.062Z,49.17
2017-12-24T08:21:35.226Z,52.63
2017-12-24T08:23:36.254Z,52.03
2017-12-24T08:25:37.251Z,50.33
2017-12-24T08:27:39.067Z,46.40
2017-12-24T08:29:40.022Z,48.27
2017-12-24T08:31:40.984Z,55.90
2017-12-24T08:33:42.011Z,53.63
2017-12-24T08:35:42.976Z,54.60
2017-12-24T08:37:43.939Z,56.73
2017-12-24T08:39:45.664Z,46.43
2017-12-24T08:41:46.627Z,49.40
2017-12-24T08:43:47.783Z,52.87
2017-12-24T08:45:48.724Z,49.00
2017-12-24T08:47:49.750Z,51.67
2017-12-24T08:49:50.751Z,51.20
2017-12-24T08:51:51.715Z,50.43
2017-12-24T08:53:52.863Z,51.00
2017-12-24T08:55:53.870Z,51.40
2017-12-24T08:57:54.830Z,47.50
2017-12-24T08:59:55.818Z,44.90
2017-12-24T09:01:56.836Z,46.20
2017-12-24T09:03:57.832Z,50.47
2017-12-24T09:05:58.809Z,44.87
2017-12-24T09:07:59.778Z,51.97
2017-12-24T09:10:00.794Z,52.30
2017-12-24T09:12:02.085Z,50.93
2017-12-24T09:14:03.147Z,39.47
2017-12-24T09:16:04.115Z,44.80
2017-12-24T09:18:05.101Z,48.60
2017-12-24T09:20:06.078Z,53.33
2017-12-24T09:22:07.048Z,49.60
2017-12-24T09:24:08.062Z,51.37
2017-12-24T09:26:09.072Z,44.97
2017-12-24T09:28:10.025Z,46.97
2017-12-24T09:30:11.786Z,56.37
2017-12-24T09:32:12.775Z,41.10
2017-12-24T09:34:13.799Z,47.07
2017-12-24T09:36:14.821Z,43.73
2017-12-24T09:38:15.883Z,43.73
2017-12-24T09:40:16.899Z,45.93
2017-12-24T09:42:17.868Z,49.50
2017-12-24T09:44:19.660Z,41.97
2017-12-24T09:46:20.647Z,43.87
2017-12-24T09:48:21.626Z,40.67
2017-12-24T09:50:22.622Z,41.80
2017-12-24T09:52:23.660Z,44.90
2017-12-24T09:54:24.635Z,37.23
2017-12-24T09:56:25.632Z,41.53
2017-12-24T09:58:26.614Z,43.43
2017-12-24T10:00:27.624Z,40.43
2017-12-24T10:02:28.872Z,34.43
2017-12-24T10:04:30.598Z,39.20
2017-12-24T10:06:31.589Z,38.27
2017-12-24T10:08:32.546Z,33.97
2017-12-24T10:10:33.507Z,34.67
2017-12-24T10:12:34.572Z,34.50
2017-12-24T10:14:35.584Z,34.73
2017-12-24T10:16:36.577Z,38.10
2017-12-24T10:18:37.562Z,37.30
2017-12-24T10:20:39.288Z,32.37
2017-12-24T10:22:40.471Z,30.00
2017-12-24T10:24:42.219Z,32.23
2017-12-24T10:26:43.242Z,30.83
2017-12-24T10:28:44.220Z,33.13
2017-12-24T10:30:45.983Z,35.53
2017-12-24T10:32:47.074Z,28.37
2017-12-24T10:34:48.050Z,29.70
2017-12-24T10:36:48.987Z,30.60
2017-12-24T10:38:49.978Z,27.73
2017-12-24T10:40:51.699Z,27.87
2017-12-24T10:42:52.713Z,30.37
2017-12-24T10:44:53.670Z,26.70
2017-12-24T10:46:54.743Z,24.70
2017-12-24T10:48:55.779Z,26.73
2017-12-24T10:50:56.820Z,25.00
2017-12-24T10:52:57.874Z,26.43
2017-12-24T10:54:58.858Z,23.13
2017-12-24T10:56:59.934Z,25.17
2017-12-24T10:59:00.927Z,26.50
2017-12-24T11:01:01.949Z,26.73
2017-12-24T11:03:02.915Z,24.10
2017-12-24T11:05:03.920Z,22.27
2017-12-24T11:07:04.955Z,24.20
2017-12-24T11:09:05.966Z,21.50
2017-12-24T11:11:06.958Z,27.13
2017-12-24T11:13:08.683Z,19.33
2017-12-24T11:15:09.790Z,24.37
2017-12-24T11:17:10.815Z,20.23
2017-12-24T11:19:12.536Z,20.63
2017-12-24T11:21:13.507Z,17.87
2017-12-24T11:23:14.824Z,34.63
2017-12-24T11:25:16.652Z,26.47
2017-12-24T11:27:17.791Z,24.43
2017-12-24T11:29:19.525Z,21.07
2017-12-24T11:31:20.514Z,24.97
2017-12-24T11:33:22.342Z,26.13
2017-12-24T11:35:23.378Z,30.53
2017-12-24T11:37:24.372Z,21.03
2017-12-24T11:39:25.351Z,29.03
2017-12-24T11:41:26.403Z,24.03
2017-12-24T11:43:27.415Z,24.37
2017-12-24T11:45:28.468Z,25.03
2017-12-24T11:47:29.489Z,27.93
2017-12-24T11:49:30.457Z,26.60
2017-12-24T11:51:31.482Z,25.17
2017-12-24T11:53:32.471Z,22.80
2017-12-24T11:55:33.467Z,24.30
2017-12-24T11:57:34.477Z,25.63
2017-12-24T11:59:35.532Z,22.50
2017-12-24T12:01:36.630Z,24.07
2017-12-24T12:03:37.705Z,23.70
2017-12-24T12:05:39.152Z,22.03
2017-12-24T12:07:40.867Z,30.80
2017-12-24T12:09:41.968Z,27.60
2017-12-24T12:11:42.996Z,27.87
2017-12-24T12:13:43.965Z,30.10
2017-12-24T12:15:44.943Z,26.57
2017-12-24T12:17:46.002Z,24.07
2017-12-24T12:19:47.078Z,28.00
2017-12-24T12:21:48.070Z,27.63
2017-12-24T12:23:49.064Z,20.47
2017-12-24T12:25:50.267Z,20.80
2017-12-24T12:27:51.332Z,24.03
2017-12-24T12:29:52.428Z,22.50
2017-12-24T12:31:53.403Z,19.37
2017-12-24T12:33:54.410Z,26.53
2017-12-24T12:35:55.372Z,21.90
2017-12-24T12:37:56.367Z,20.40
2017-12-24T12:39:57.404Z,20.93
2017-12-24T12:41:58.487Z,19.77
2017-12-24T12:44:00.036Z,20.17
2017-12-24T12:46:01.024Z,19.57
2017-12-24T12:48:02.027Z,19.50
2017-12-24T12:50:02.975Z,19.27
2017-12-24T12:52:04.825Z,17.67
2017-12-24T12:54:05.805Z,19.20
2017-12-24T12:56:06.795Z,22.10
2017-12-24T12:58:07.754Z,17.80
2017-12-24T13:00:08.773Z,16.83
2017-12-24T13:02:09.728Z,20.17
2017-12-24T13:04:10.748Z,22.40
2017-12-24T13:06:11.762Z,21.20
2017-12-24T13:08:12.920Z,20.10
2017-12-24T13:10:13.967Z,18.63
2017-12-24T13:12:14.958Z,20.43
2017-12-24T13:14:15.901Z,17.03
2017-12-24T13:16:16.895Z,19.73
2017-12-24T13:18:17.827Z,20.10
2017-12-24T13:20:18.774Z,18.50
2017-12-24T13:22:19.751Z,21.27
2017-12-24T13:24:20.765Z,18.20
2017-12-24T13:26:21.738Z,21.20
2017-12-24T13:28:22.698Z,17.50
2017-12-24T13:30:24.523Z,21.87
2017-12-24T13:32:25.529Z,20.83
2017-12-24T13:34:27.247Z,19.30
2017-12-24T13:36:28.396Z,22.10
2017-12-24T13:38:29.351Z,19.33
2017-12-24T13:40:30.315Z,18.57
2017-12-24T13:42:31.271Z,23.33
2017-12-24T13:44:32.963Z,14.93
2017-12-24T13:46:33.952Z,14.33
2017-12-24T13:48:34.982Z,14.30
2017-12-24T13:50:35.951Z,17.47
2017-12-24T13:52:36.933Z,15.83
2017-12-24T13:54:38.750Z,16.23
2017-12-24T13:56:39.787Z,14.50
2017-12-24T13:58:40.753Z,15.00
2017-12-24T14:00:41.822Z,14.73
2017-12-24T14:02:42.787Z,15.53
2017-12-24T14:04:43.735Z,12.43
2017-12-24T14:06:44.695Z,13.40
2017-12-24T14:08:45.675Z,12.67
2017-12-24T14:10:46.651Z,12.27
2017-12-24T14:12:47.606Z,13.97
2017-12-24T14:14:48.697Z,13.80
2017-12-24T14:16:49.723Z,11.93
2017-12-24T14:18:50.706Z,13.40
2017-12-24T14:20:51.666Z,12.20
2017-12-24T14:22:52.638Z,10.00
2017-12-24T14:24:54.344Z,13.37
2017-12-24T14:26:55.333Z,11.60
2017-12-24T14:28:56.288Z,16.97
2017-12-24T14:30:57.329Z,14.73
2017-12-24T14:32:58.291Z,15.33
2017-12-24T14:34:59.299Z,10.90
2017-12-24T14:37:00.309Z,11.13
2017-12-24T14:39:01.267Z,10.43
2017-12-24T14:41:02.313Z,15.23
2017-12-24T14:43:03.376Z,11.97
2017-12-24T14:45:04.339Z,12.30
2017-12-24T14:47:05.326Z,8.47
2017-12-24T14:49:06.479Z,11.77
2017-12-24T14:51:07.461Z,11.50
2017-12-24T14:53:08.459Z,10.47
2017-12-24T14:55:10.204Z,12.40
2017-12-24T14:57:11.174Z,10.80
2017-12-24T14:59:12.871Z,10.40
2017-12-24T15:01:13.962Z,12.17
2017-12-24T15:03:15.029Z,13.70
2017-12-24T15:05:16.001Z,12.97
2017-12-24T15:07:17.534Z,9.93
2017-12-24T15:09:18.483Z,12.27
2017-12-24T15:11:19.588Z,12.73
2017-12-24T15:13:20.571Z,13.20
2017-12-24T15:15:22.276Z,12.63
2017-12-24T15:17:23.444Z,12.27
2017-12-24T15:19:24.452Z,14.30
2017-12-24T15:21:25.421Z,17.40
2017-12-24T15:23:26.372Z,15.07
2017-12-24T15:25:27.345Z,16.03
2017-12-24T15:27:28.426Z,13.93
2017-12-24T15:29:29.448Z,16.07
2017-12-24T15:31:30.460Z,15.07
2017-12-24T15:33:31.477Z,18.23
2017-12-24T15:35:32.439Z,14.23
2017-12-24T15:37:33.410Z,14.97
2017-12-24T15:39:34.463Z,16.83
2017-12-24T15:41:35.500Z,16.07
2017-12-24T15:43:36.503Z,19.30
2017-12-24T15:45:37.532Z,21.50
2017-12-24T15:47:38.544Z,17.33
2017-12-24T15:49:39.547Z,18.10
2017-12-24T15:51:45.433Z,21.13
2017-12-24T15:53:46.420Z,20.20
2017-12-24T15:55:47.379Z,17.30
2017-12-24T15:57:48.385Z,24.90
2017-12-24T15:59:49.448Z,22.83
2017-12-24T16:01:50.443Z,23.27
2017-12-24T16:03:51.395Z,22.40
2017-12-24T16:05:52.576Z,20.80
2017-12-24T16:07:53.604Z,20.73
2017-12-24T16:09:54.612Z,23.97
2017-12-24T16:11:55.596Z,25.67
2017-12-24T16:13:56.575Z,29.43
2017-12-24T16:15:57.597Z,31.10
2017-12-24T16:17:58.660Z,29.90
2017-12-24T16:20:00.166Z,28.63
2017-12-24T16:22:01.175Z,30.90
2017-12-24T16:24:02.213Z,28.43
2017-12-24T16:26:03.396Z,31.33
2017-12-24T16:28:04.412Z,25.33
2017-12-24T16:30:05.469Z,33.23
2017-12-24T16:32:06.472Z,32.33
2017-12-24T16:34:07.460Z,31.60
2017-12-24T16:36:08.456Z,39.80
2017-12-24T16:38:09.443Z,33.30
2017-12-24T16:40:11.495Z,29.67
2017-12-24T16:42:12.624Z,31.53
2017-12-24T16:44:13.615Z,34.33
2017-12-24T16:46:14.759Z,35.07
2017-12-24T16:48:15.748Z,33.30
2017-12-24T16:50:16.761Z,36.50
2017-12-24T16:52:17.877Z,27.67
2017-12-24T16:54:19.001Z,29.93
2017-12-24T16:56:20.010Z,32.27
2017-12-24T16:58:21.028Z,35.67
2017-12-24T17:00:22.151Z,43.47
2017-12-24T17:02:23.495Z,31.10
2017-12-24T17:04:24.578Z,31.10
2017-12-24T17:06:37.083Z,35.60
2017-12-24T17:08:38.336Z,34.83
2017-12-24T17:10:39.476Z,32.43
2017-12-24T17:12:40.474Z,34.47
2017-12-24T17:14:42.130Z,37.00
2017-12-24T17:16:43.101Z,41.33
2017-12-24T17:18:46.137Z,32.93
2017-12-24T17:20:47.119Z,37.60
2017-12-24T17:22:48.167Z,40.00
2017-12-24T17:24:49.135Z,40.50
2017-12-24T17:26:50.116Z,35.13
2017-12-24T17:28:51.108Z,36.50
2017-12-24T17:30:52.171Z,36.43
2017-12-24T17:32:53.173Z,35.70
2017-12-24T17:34:54.152Z,38.40
2017-12-24T17:36:55.159Z,35.33
2017-12-24T17:38:56.158Z,32.97
2017-12-24T17:40:57.137Z,38.73
2017-12-24T17:42:58.121Z,37.43
2017-12-24T17:44:59.199Z,36.47
2017-12-24T17:47:00.263Z,29.20
2017-12-24T17:49:01.271Z,32.90
2017-12-24T17:51:02.266Z,36.73
2017-12-24T17:53:03.250Z,33.97
2017-12-24T17:55:04.290Z,29.77
2017-12-24T17:57:05.282Z,34.53
2017-12-24T17:59:06.514Z,39.20
2017-12-24T18:01:07.499Z,33.73
2017-12-24T18:03:08.547Z,39.67
2017-12-24T18:05:10.294Z,32.33
2017-12-24T18:07:11.456Z,31.80
2017-12-24T18:09:12.443Z,30.40
2017-12-24T18:11:13.495Z,33.30
2017-12-24T18:13:14.491Z,37.13
2017-12-24T18:15:15.488Z,32.47
2017-12-24T18:17:16.494Z,37.97
2017-12-24T18:19:17.468Z,30.60
2017-12-24T18:21:18.537Z,31.53
2017-12-24T18:23:19.531Z,34.43
2017-12-24T18:25:20.567Z,37.58
2017-12-24T18:27:21.612Z,34.43
2017-12-24T18:29:22.670Z,30.27
2017-12-24T18:31:23.671Z,31.10
2017-12-24T18:33:24.686Z,32.67
2017-12-24T18:35:25.672Z,29.10
2017-12-24T18:37:26.654Z,28.80
2017-12-24T18:39:27.673Z,34.80
2017-12-24T18:41:28.658Z,32.10
2017-12-24T18:43:29.727Z,28.73
2017-12-24T18:45:31.568Z,33.57
2017-12-24T18:47:32.550Z,32.87
2017-12-24T18:49:33.564Z,36.27
2017-12-24T18:51:34.555Z,35.17
2017-12-24T18:53:35.547Z,37.70
2017-12-24T18:55:36.584Z,38.37
2017-12-24T18:57:37.693Z,33.20
2017-12-24T18:59:38.665Z,35.63
2017-12-24T19:01:39.672Z,33.73
2017-12-24T19:03:40.744Z,39.90
2017-12-24T19:05:49.139Z,33.07
2017-12-24T19:07:50.581Z,35.30
2017-12-24T19:09:51.595Z,34.13
2017-12-24T19:11:52.564Z,38.07
2017-12-24T19:13:53.659Z,34.43
2017-12-24T19:15:54.634Z,37.43
2017-12-24T19:17:55.849Z,34.70
2017-12-24T19:19:56.917Z,38.20
2017-12-24T19:21:57.862Z,39.80
2017-12-24T19:23:58.825Z,40.87
2017-12-24T19:25:59.932Z,38.53
2017-12-24T19:28:01.664Z,38.67
2017-12-24T19:30:02.643Z,32.97
2017-12-24T19:32:03.780Z,39.93
2017-12-24T19:34:04.751Z,38.57
2017-12-24T19:36:05.732Z,42.47
2017-12-24T19:38:06.886Z,39.80
2017-12-24T19:40:08.041Z,44.00
2017-12-24T19:42:09.093Z,40.27
2017-12-24T19:44:10.095Z,40.47
2017-12-24T19:46:11.087Z,43.93
2017-12-24T19:48:13.411Z,40.27
2017-12-24T19:50:14.621Z,46.30
2017-12-24T19:52:16.718Z,47.27
2017-12-24T19:54:17.743Z,45.63
2017-12-24T19:56:18.708Z,41.23
2017-12-24T19:58:19.702Z,46.77
2017-12-24T20:00:20.655Z,50.27
2017-12-24T20:02:21.673Z,46.90
2017-12-24T20:04:22.667Z,45.63
2017-12-24T20:06:23.648Z,42.90
2017-12-24T20:08:24.624Z,39.77
2017-12-24T20:10:25.676Z,35.60
2017-12-24T20:12:26.689Z,45.67
2017-12-24T20:14:27.667Z,38.10
2017-12-24T20:16:28.688Z,49.10
2017-12-24T20:18:29.695Z,45.70
2017-12-24T20:20:30.919Z,46.20
2017-12-24T20:22:31.906Z,43.33
2017-12-24T20:24:32.911Z,46.30
2017-12-24T20:26:33.904Z,46.40
2017-12-24T20:28:34.924Z,44.20
2017-12-24T20:30:36.196Z,43.13
2017-12-24T20:32:37.916Z,39.37
2017-12-24T20:34:39.101Z,44.10
2017-12-24T20:36:40.123Z,41.03
2017-12-24T20:38:41.135Z,42.97
2017-12-24T20:40:42.134Z,45.40
2017-12-24T20:42:43.109Z,39.77
2017-12-24T20:44:45.281Z,36.40
2017-12-24T20:46:46.387Z,37.77
2017-12-24T20:48:47.399Z,40.17
2017-12-24T20:50:48.378Z,37.90
2017-12-24T20:53:16.164Z,37.03
2017-12-24T20:55:17.268Z,38.37
2017-12-24T20:57:18.307Z,32.83
2017-12-24T20:59:19.395Z,33.57
2017-12-24T21:01:22.999Z,36.27
2017-12-24T21:03:24.042Z,34.03
2017-12-24T21:05:26.557Z,29.00
2017-12-24T21:07:27.867Z,34.30
2017-12-24T21:09:30.982Z,32.73
2017-12-24T21:11:32.195Z,31.10
2017-12-24T21:13:33.247Z,32.33
2017-12-24T21:15:34.339Z,36.90
2017-12-24T21:17:35.360Z,30.03
2017-12-24T21:21:43.530Z,31.67
2017-12-24T21:23:44.587Z,23.43
2017-12-24T21:25:45.680Z,28.80
2017-12-24T21:27:46.732Z,29.60
2017-12-24T21:29:48.854Z,23.43
2017-12-24T21:31:52.574Z,29.00
2017-12-24T21:33:59.011Z,33.97
2017-12-24T21:36:03.949Z,32.40
2017-12-24T21:38:05.099Z,29.17
2017-12-24T21:40:07.695Z,27.70
2017-12-24T21:42:08.704Z,24.80
2017-12-24T21:44:09.981Z,28.43
2017-12-24T21:46:11.026Z,26.83
2017-12-24T21:48:12.887Z,26.20
2017-12-24T21:50:24.548Z,23.90
2017-12-24T21:52:25.742Z,22.13
2017-12-24T21:54:26.801Z,24.77
2017-12-24T21:56:27.787Z,20.47
2017-12-24T21:58:28.804Z,20.77
2017-12-24T22:00:30.254Z,28.10
2017-12-24T22:02:31.288Z,22.13
2017-12-24T22:04:40.944Z,17.20
2017-12-24T22:06:42.141Z,14.90
2017-12-24T22:08:43.183Z,16.47
2017-12-24T22:10:44.228Z,15.10
2017-12-24T22:12:45.516Z,19.00
2017-12-24T22:14:46.946Z,16.40
2017-12-24T22:16:48.091Z,20.00
2017-12-24T22:18:49.246Z,24.13
2017-12-24T22:20:50.267Z,17.80
2017-12-24T22:22:51.270Z,19.80
2017-12-24T22:24:52.420Z,23.70
2017-12-24T22:26:53.426Z,20.87
2017-12-24T22:28:54.440Z,20.83
2017-12-24T22:30:55.481Z,19.20
2017-12-24T22:32:56.459Z,22.90
2017-12-24T22:34:58.240Z,22.93
2017-12-24T22:36:59.375Z,20.63
2017-12-24T22:39:00.393Z,23.07
2017-12-24T22:41:01.616Z,23.50
2017-12-24T22:43:02.657Z,22.87
2017-12-24T22:45:03.814Z,23.17
2017-12-24T22:47:05.240Z,20.47
2017-12-24T22:49:06.312Z,21.63
2017-12-24T22:51:07.320Z,19.97
2017-12-24T22:53:08.732Z,22.17
2017-12-24T22:55:11.268Z,24.10
2017-12-24T22:57:16.135Z,19.90
2017-12-24T22:59:17.207Z,19.13
2017-12-24T23:01:18.191Z,20.97
2017-12-24T23:03:27.633Z,25.87
2017-12-24T23:05:32.848Z,20.30
2017-12-24T23:09:41.168Z,17.50
2017-12-24T23:11:42.197Z,18.20
2017-12-24T23:13:43.862Z,21.30
2017-12-24T23:15:44.978Z,16.57
2017-12-24T23:17:49.934Z,18.53
2017-12-24T23:19:51.006Z,21.20
2017-12-24T23:21:52.202Z,18.37
2017-12-24T23:23:53.258Z,20.75
2017-12-24T23:25:54.440Z,19.80
2017-12-24T23:27:59.999Z,17.53
2017-12-24T23:30:01.070Z,11.80
2017-12-24T23:32:02.087Z,14.00
2017-12-24T23:34:03.135Z,16.57
2017-12-24T23:36:04.626Z,13.77
2017-12-24T23:38:12.932Z,12.23
2017-12-24T23:40:14.158Z,13.90
2017-12-24T23:42:15.180Z,15.40
2017-12-24T23:44:16.198Z,14.60
2017-12-24T23:46:17.182Z,15.27
2017-12-24T23:48:18.176Z,12.17
2017-12-24T23:50:19.304Z,11.60
2017-12-24T23:52:20.377Z,11.97
2017-12-24T23:56:27.372Z,13.10
2017-12-24T23:58:28.602Z,13.23
